Terminal Aerodrome Forecast
Issued by NWS Duluth, MN

Home | Current Version | Previous Version | Text Only | Print | Product List | Glossary On
Versions: 1 2 3 4 5 6 7 8 9 10 11 12 13 14 15
000
FTUS43 KDLH 060200 AAA
TAFDLH
TAF AMD
KDLH 060220Z 0602/0624 09011KT P6SM SKC
     FM060900 06006KT P6SM BKN025
     FM061100 08007KT P6SM VCSH BKN015 OVC030
     FM061800 08010KT P6SM -SHRA BKN025 OVC040=

USA.gov is the U.S. government's official web portal to all federal, state and local government web resources and services.